Kashima Maru — JD2948 — position and weather

sailwx.info

Track history (hours):
 
Tides and Currents Weather Stations Pressure Air Temp Water Temp Dewpoint Dewpoint Depression Visibility Wind Speed Wind Dir Waves Ship Positions

Kashima Maru

Last reported at 2018-Jan-20 05:50 UTC. Time now 2018-Jan-20 16:46 UTC.
Position N 35°27' E 139°39'.

Length 37 m.

MMSI: 431000987.

Date/timePositionNaut miles runAvg speedWind from/ knotsBaromVisibWave heightAir tempDewpointWater temp
2018-Jan-20 05:50N 35°27' E 139°39'0 0.3
2018-Jan-20 05:30N 35°27' E 139°39'0 0.0
2018-Jan-20 05:00N 35°27' E 139°39'2 4.4
2018-Jan-20 04:30N 35°27' E 139°42'5 9.2
2018-Jan-20 04:00N 35°29' E 139°47'0 0.4
2018-Jan-20 03:30N 35°29' E 139°47'0 0.1
2018-Jan-20 03:00N 35°29' E 139°47'0 0.2
2018-Jan-20 02:30N 35°29' E 139°47'1 2.3
2018-Jan-20 02:01N 35°28' E 139°47'3 5.5
2018-Jan-20 01:30N 35°25' E 139°46'3 6.4
2018-Jan-20 01:00N 35°22' E 139°45'5 9.4
2018-Jan-20 00:30N 35°17' E 139°45'510.6
2018-Jan-20 00:00N 35°12' E 139°47'2 3.5
2018-Jan-19 23:30N 35°11' E 139°47'4 8.3
2018-Jan-19 23:00N 35°15' E 139°45'5 9.0
2018-Jan-19 22:30N 35°19' E 139°43'4 8.4
2018-Jan-19 22:00N 35°23' E 139°42'4 8.7
2018-Jan-19 21:30N 35°27' E 139°41'1 0.1
2018-Jan-19 09:10N 35°27' E 139°39'1 3.9
2018-Jan-19 09:00N 35°27' E 139°40'2 4.4
2018-Jan-19 08:30N 35°25' E 139°41'0 0.4
2018-Jan-19 08:01N 35°25' E 139°41'0 0.1
2018-Jan-19 07:31N 35°25' E 139°41'4 8.0
2018-Jan-19 07:01N 35°21' E 139°42'4 8.7
2018-Jan-19 06:31N 35°17' E 139°44'5 8.9
2018-Jan-19 05:59N 35°13' E 139°46'3 5.5
2018-Jan-19 05:30N 35°16' E 139°46'611.2
2018-Jan-19 05:01N 35°20' E 139°42'3 6.5
2018-Jan-19 04:30N 35°23' E 139°42'0 0.2
2018-Jan-19 04:00N 35°23' E 139°42'2 4.5
2018-Jan-19 03:30N 35°26' E 139°41'0 0.1
2018-Jan-19 03:00N 35°26' E 139°41'0 0.1
2018-Jan-19 02:30N 35°26' E 139°41'0 0.0
2018-Jan-19 02:00N 35°26' E 139°41'3 5.4
2018-Jan-19 01:30N 35°28' E 139°41'4 8.8
2018-Jan-19 01:00N 35°30' E 139°45'1 1.4
2018-Jan-19 00:30N 35°31' E 139°46'1 1.9
2018-Jan-19 00:00N 35°30' E 139°45'0 0.0
2018-Jan-18 23:30N 35°30' E 139°45'2 4.0
2018-Jan-18 23:00N 35°29' E 139°43'0 0.3
2018-Jan-18 22:30N 35°29' E 139°43'1 1.5
2018-Jan-18 22:00N 35°29' E 139°42'2 3.7
2018-Jan-18 21:30N 35°27' E 139°43'0 0.3
2018-Jan-18 21:00N 35°27' E 139°43'1 1.7
2018-Jan-18 20:30N 35°28' E 139°42'2 3.8
2018-Jan-18 20:00N 35°28' E 139°40'1 1.6
2018-Jan-18 19:30N 35°27' E 139°40'0 0.0
2018-Jan-18 08:18N 35°27' E 139°40'0 0.0
2018-Jan-18 08:00N 35°27' E 139°40'0 0.0
2018-Jan-18 07:30N 35°27' E 139°40'1 1.8
2018-Jan-18 07:00N 35°28' E 139°40'0 0.0
2018-Jan-18 06:31N 35°28' E 139°40'0 0.0
2018-Jan-18 06:00N 35°28' E 139°40'0 0.0
2018-Jan-18 05:30N 35°28' E 139°40'2 3.3
2018-Jan-18 05:00N 35°27' E 139°42'4 8.6
2018-Jan-18 04:31N 35°28' E 139°47'4 8.4
2018-Jan-18 04:00N 35°30' E 139°52'510.3
2018-Jan-18 03:30N 35°28' E 139°58'0 0.0
2018-Jan-18 03:00N 35°28' E 139°58'0 0.1
2018-Jan-18 02:30N 35°28' E 139°58'1 1.3
2018-Jan-18 02:00N 35°29' E 139°58'1 1.2
2018-Jan-18 01:31N 35°29' E 139°57'2 3.0
2018-Jan-18 01:00N 35°29' E 139°59'1 1.2
2018-Jan-18 00:01N 35°29' E 140°01'0 1.2
2018-Jan-17 23:57N 35°29' E 140°01'  
2018-Jan-12 15:00N 35°28' E 139°41'0 0.0
2018-Jan-12 14:30N 35°28' E 139°41'0 0.0
2018-Jan-12 14:00N 35°28' E 139°41'0 0.0
2018-Jan-12 13:30N 35°28' E 139°41'0 0.0
2018-Jan-12 13:00N 35°28' E 139°41'0 0.0
2018-Jan-12 12:30N 35°28' E 139°41'1 1.9
2018-Jan-12 12:01N 35°27' E 139°41'0 0.9
2018-Jan-12 11:31N 35°26' E 139°41'1 2.7
2018-Jan-12 11:00N 35°28' E 139°40'0 0.0
2018-Jan-12 10:30N 35°28' E 139°40'0 0.7
2018-Jan-12 10:00N 35°28' E 139°40'1 2.7
2018-Jan-12 09:31N 35°27' E 139°41'4 6.9
2018-Jan-12 09:00N 35°29' E 139°45'1 2.1
2018-Jan-12 08:29N 35°30' E 139°46'0 0.0
2018-Jan-12 08:01N 35°30' E 139°46'1 2.9
2018-Jan-12 07:30N 35°29' E 139°45'3 5.1
2018-Jan-12 07:01N 35°28' E 139°42'0 0.4
2018-Jan-12 06:30N 35°28' E 139°42'2 3.6
2018-Jan-12 06:01N 35°27' E 139°39'0 0.0
2018-Jan-12 05:31N 35°27' E 139°39'0 0.0
2018-Jan-12 05:01N 35°27' E 139°39'0 0.0
2018-Jan-12 04:31N 35°27' E 139°39'0 0.0
2018-Jan-12 04:01N 35°27' E 139°39'0 0.0
2018-Jan-12 03:30N 35°27' E 139°39'0 0.3
2018-Jan-12 03:01N 35°27' E 139°39'4 7.9
2018-Jan-12 02:31N 35°28' E 139°44'3 5.3
2018-Jan-12 02:01N 35°29' E 139°47'0 0.0
2018-Jan-12 01:31N 35°29' E 139°47'0 0.0
2018-Jan-12 00:58N 35°29' E 139°47'0 0.3
2018-Jan-12 00:30N 35°29' E 139°47'1 2.4
2018-Jan-12 00:00N 35°28' E 139°47'2 4.8
2018-Jan-11 23:30N 35°26' E 139°45'1 3.0
2018-Jan-11 23:01N 35°26' E 139°44'4 7.1
2018-Jan-11 22:30N 35°27' E 139°40'0 0.6
2018-Jan-11 22:00N 35°27' E 139°39'0 0.0
2018-Jan-11 21:31N 35°27' E 139°39'0 0.0
2018-Jan-10 23:12N 35°27' E 139°39'0 2.1
2018-Jan-10 23:00N 35°27' E 139°39'2 4.4
2018-Jan-10 22:30N 35°28' E 139°41'0 0.3
2018-Jan-10 22:01N 35°28' E 139°42'2 4.1
2018-Jan-10 21:30N 35°27' E 139°44'1 1.2
2018-Jan-10 21:00N 35°26' E 139°44'4 7.9
2018-Jan-10 20:30N 35°27' E 139°39'0 0.0
2018-Jan-10 20:00N 35°27' E 139°39'0 0.0
2018-Jan-10 19:31N 35°27' E 139°39'0 0.0
2018-Jan-10 19:00N 35°27' E 139°39'0 0.0
2018-Jan-10 18:30N 35°27' E 139°39'0 0.0
2018-Jan-10 18:00N 35°27' E 139°39'4 8.0
2018-Jan-10 17:31N 35°23' E 139°41'1 1.3
2018-Jan-10 17:00N 35°24' E 139°41'0 0.4
2018-Jan-10 16:30N 35°24' E 139°41'0 0.0
2018-Jan-10 16:00N 35°24' E 139°41'0 0.0
2018-Jan-10 15:30N 35°24' E 139°41'0 0.0
2018-Jan-10 15:00N 35°24' E 139°41'0 0.0
2018-Jan-10 14:30N 35°24' E 139°41'0 0.0
2018-Jan-10 14:01N 35°24' E 139°41'0 0.0
2018-Jan-10 13:30N 35°24' E 139°41'3 6.3
2018-Jan-10 13:00N 35°27' E 139°40'1 2.5
2018-Jan-10 12:31N 35°27' E 139°41'1 2.8
2018-Jan-10 12:00N 35°25' E 139°42'2 3.0
2018-Jan-10 11:30N 35°24' E 139°41'1 1.9
2018-Jan-10 11:00N 35°23' E 139°40'0 0.0
2018-Jan-10 10:31N 35°23' E 139°40'0 0.0
2018-Jan-10 10:00N 35°23' E 139°40'3 5.8
2018-Jan-10 09:30N 35°26' E 139°42'1 1.5
2018-Jan-10 09:00N 35°26' E 139°41'0 0.0
2018-Jan-10 08:31N 35°26' E 139°41'1 1.2
2018-Jan-10 08:01N 35°26' E 139°42'0 0.0
2018-Jan-10 07:30N 35°26' E 139°42'1 2.2
2018-Jan-10 07:00N 35°25' E 139°42'2 4.5
2018-Jan-10 06:31N 35°24' E 139°39'0 0.5
2018-Jan-10 06:01N 35°25' E 139°39'  
Track history (hours):
 
Tides and Currents Weather Stations Pressure Air Temp Water Temp Dewpoint Dewpoint Depression Visibility Wind Speed Wind Dir Waves Ship Positions

Kashima Maru

Last reported at 2018-Jan-20 05:50 UTC. Time now 2018-Jan-20 16:46 UTC.
Position N 35°27' E 139°39'.

Length 37 m.

MMSI: 431000987.

Date/timePositionNaut miles runAvg speedWind from/ knotsBaromVisibWave heightAir tempDewpointWater temp
2018-Jan-20 05:50N 35°27' E 139°39'0 0.3
2018-Jan-20 05:30N 35°27' E 139°39'0 0.0
2018-Jan-20 05:00N 35°27' E 139°39'2 4.4
2018-Jan-20 04:30N 35°27' E 139°42'5 9.2
2018-Jan-20 04:00N 35°29' E 139°47'0 0.4
2018-Jan-20 03:30N 35°29' E 139°47'0 0.1
2018-Jan-20 03:00N 35°29' E 139°47'0 0.2
2018-Jan-20 02:30N 35°29' E 139°47'1 2.3
2018-Jan-20 02:01N 35°28' E 139°47'3 5.5
2018-Jan-20 01:30N 35°25' E 139°46'3 6.4
2018-Jan-20 01:00N 35°22' E 139°45'5 9.4
2018-Jan-20 00:30N 35°17' E 139°45'510.6
2018-Jan-20 00:00N 35°12' E 139°47'2 3.5
2018-Jan-19 23:30N 35°11' E 139°47'4 8.3
2018-Jan-19 23:00N 35°15' E 139°45'5 9.0
2018-Jan-19 22:30N 35°19' E 139°43'4 8.4
2018-Jan-19 22:00N 35°23' E 139°42'4 8.7
2018-Jan-19 21:30N 35°27' E 139°41'1 0.1
2018-Jan-19 09:10N 35°27' E 139°39'1 3.9
2018-Jan-19 09:00N 35°27' E 139°40'2 4.4
2018-Jan-19 08:30N 35°25' E 139°41'0 0.4
2018-Jan-19 08:01N 35°25' E 139°41'0 0.1
2018-Jan-19 07:31N 35°25' E 139°41'4 8.0
2018-Jan-19 07:01N 35°21' E 139°42'4 8.7
2018-Jan-19 06:31N 35°17' E 139°44'5 8.9
2018-Jan-19 05:59N 35°13' E 139°46'3 5.5
2018-Jan-19 05:30N 35°16' E 139°46'611.2
2018-Jan-19 05:01N 35°20' E 139°42'3 6.5
2018-Jan-19 04:30N 35°23' E 139°42'0 0.2
2018-Jan-19 04:00N 35°23' E 139°42'2 4.5
2018-Jan-19 03:30N 35°26' E 139°41'0 0.1
2018-Jan-19 03:00N 35°26' E 139°41'0 0.1
2018-Jan-19 02:30N 35°26' E 139°41'0 0.0
2018-Jan-19 02:00N 35°26' E 139°41'3 5.4
2018-Jan-19 01:30N 35°28' E 139°41'4 8.8
2018-Jan-19 01:00N 35°30' E 139°45'1 1.4
2018-Jan-19 00:30N 35°31' E 139°46'1 1.9
2018-Jan-19 00:00N 35°30' E 139°45'0 0.0
2018-Jan-18 23:30N 35°30' E 139°45'2 4.0
2018-Jan-18 23:00N 35°29' E 139°43'0 0.3
2018-Jan-18 22:30N 35°29' E 139°43'1 1.5
2018-Jan-18 22:00N 35°29' E 139°42'2 3.7
2018-Jan-18 21:30N 35°27' E 139°43'0 0.3
2018-Jan-18 21:00N 35°27' E 139°43'1 1.7
2018-Jan-18 20:30N 35°28' E 139°42'2 3.8
2018-Jan-18 20:00N 35°28' E 139°40'1 1.6
2018-Jan-18 19:30N 35°27' E 139°40'0 0.0
2018-Jan-18 08:18N 35°27' E 139°40'0 0.0
2018-Jan-18 08:00N 35°27' E 139°40'0 0.0
2018-Jan-18 07:30N 35°27' E 139°40'1 1.8
2018-Jan-18 07:00N 35°28' E 139°40'0 0.0
2018-Jan-18 06:31N 35°28' E 139°40'0 0.0
2018-Jan-18 06:00N 35°28' E 139°40'0 0.0
2018-Jan-18 05:30N 35°28' E 139°40'2 3.3
2018-Jan-18 05:00N 35°27' E 139°42'4 8.6
2018-Jan-18 04:31N 35°28' E 139°47'4 8.4
2018-Jan-18 04:00N 35°30' E 139°52'510.3
2018-Jan-18 03:30N 35°28' E 139°58'0 0.0
2018-Jan-18 03:00N 35°28' E 139°58'0 0.1
2018-Jan-18 02:30N 35°28' E 139°58'1 1.3
2018-Jan-18 02:00N 35°29' E 139°58'1 1.2
2018-Jan-18 01:31N 35°29' E 139°57'2 3.0
2018-Jan-18 01:00N 35°29' E 139°59'1 1.2
2018-Jan-18 00:01N 35°29' E 140°01'0 1.2
2018-Jan-17 23:57N 35°29' E 140°01'  
2018-Jan-12 15:00N 35°28' E 139°41'0 0.0
2018-Jan-12 14:30N 35°28' E 139°41'0 0.0
2018-Jan-12 14:00N 35°28' E 139°41'0 0.0
2018-Jan-12 13:30N 35°28' E 139°41'0 0.0
2018-Jan-12 13:00N 35°28' E 139°41'0 0.0
2018-Jan-12 12:30N 35°28' E 139°41'1 1.9
2018-Jan-12 12:01N 35°27' E 139°41'0 0.9
2018-Jan-12 11:31N 35°26' E 139°41'1 2.7
2018-Jan-12 11:00N 35°28' E 139°40'0 0.0
2018-Jan-12 10:30N 35°28' E 139°40'0 0.7
2018-Jan-12 10:00N 35°28' E 139°40'1 2.7
2018-Jan-12 09:31N 35°27' E 139°41'4 6.9
2018-Jan-12 09:00N 35°29' E 139°45'1 2.1
2018-Jan-12 08:29N 35°30' E 139°46'0 0.0
2018-Jan-12 08:01N 35°30' E 139°46'1 2.9
2018-Jan-12 07:30N 35°29' E 139°45'3 5.1
2018-Jan-12 07:01N 35°28' E 139°42'0 0.4
2018-Jan-12 06:30N 35°28' E 139°42'2 3.6
2018-Jan-12 06:01N 35°27' E 139°39'0 0.0
2018-Jan-12 05:31N 35°27' E 139°39'0 0.0
2018-Jan-12 05:01N 35°27' E 139°39'0 0.0
2018-Jan-12 04:31N 35°27' E 139°39'0 0.0
2018-Jan-12 04:01N 35°27' E 139°39'0 0.0
2018-Jan-12 03:30N 35°27' E 139°39'0 0.3
2018-Jan-12 03:01N 35°27' E 139°39'4 7.9
2018-Jan-12 02:31N 35°28' E 139°44'3 5.3
2018-Jan-12 02:01N 35°29' E 139°47'0 0.0
2018-Jan-12 01:31N 35°29' E 139°47'0 0.0
2018-Jan-12 00:58N 35°29' E 139°47'0 0.3
2018-Jan-12 00:30N 35°29' E 139°47'1 2.4
2018-Jan-12 00:00N 35°28' E 139°47'2 4.8
2018-Jan-11 23:30N 35°26' E 139°45'1 3.0
2018-Jan-11 23:01N 35°26' E 139°44'4 7.1
2018-Jan-11 22:30N 35°27' E 139°40'0 0.6
2018-Jan-11 22:00N 35°27' E 139°39'0 0.0
2018-Jan-11 21:31N 35°27' E 139°39'0 0.0
2018-Jan-10 23:12N 35°27' E 139°39'0 2.1
2018-Jan-10 23:00N 35°27' E 139°39'2 4.4
2018-Jan-10 22:30N 35°28' E 139°41'0 0.3
2018-Jan-10 22:01N 35°28' E 139°42'2 4.1
2018-Jan-10 21:30N 35°27' E 139°44'1 1.2
2018-Jan-10 21:00N 35°26' E 139°44'4 7.9
2018-Jan-10 20:30N 35°27' E 139°39'0 0.0
2018-Jan-10 20:00N 35°27' E 139°39'0 0.0
2018-Jan-10 19:31N 35°27' E 139°39'0 0.0
2018-Jan-10 19:00N 35°27' E 139°39'0 0.0
2018-Jan-10 18:30N 35°27' E 139°39'0 0.0
2018-Jan-10 18:00N 35°27' E 139°39'4 8.0
2018-Jan-10 17:31N 35°23' E 139°41'1 1.3
2018-Jan-10 17:00N 35°24' E 139°41'0 0.4
2018-Jan-10 16:30N 35°24' E 139°41'0 0.0
2018-Jan-10 16:00N 35°24' E 139°41'0 0.0
2018-Jan-10 15:30N 35°24' E 139°41'0 0.0
2018-Jan-10 15:00N 35°24' E 139°41'0 0.0
2018-Jan-10 14:30N 35°24' E 139°41'0 0.0
2018-Jan-10 14:01N 35°24' E 139°41'0 0.0
2018-Jan-10 13:30N 35°24' E 139°41'3 6.3
2018-Jan-10 13:00N 35°27' E 139°40'1 2.5
2018-Jan-10 12:31N 35°27' E 139°41'1 2.8
2018-Jan-10 12:00N 35°25' E 139°42'2 3.0
2018-Jan-10 11:30N 35°24' E 139°41'1 1.9
2018-Jan-10 11:00N 35°23' E 139°40'0 0.0
2018-Jan-10 10:31N 35°23' E 139°40'0 0.0
2018-Jan-10 10:00N 35°23' E 139°40'3 5.8
2018-Jan-10 09:30N 35°26' E 139°42'1 1.5
2018-Jan-10 09:00N 35°26' E 139°41'0 0.0
2018-Jan-10 08:31N 35°26' E 139°41'1 1.2
2018-Jan-10 08:01N 35°26' E 139°42'0 0.0
2018-Jan-10 07:30N 35°26' E 139°42'1 2.2
2018-Jan-10 07:00N 35°25' E 139°42'2 4.5
2018-Jan-10 06:31N 35°24' E 139°39'0 0.5
2018-Jan-10 06:01N 35°25' E 139°39'  

Dump ship's entire track history